Map

Track Data

SID SEASON NUMBER BASIN SUBBASIN NAME ISO_TIME NATURE LAT LON WMO_WIND WMO_PRES WMO_AGENCY TRACK_TYPE DIST2LAND LANDFALL IFLAG USA_AGENCY USA_ATCF_ID USA_LAT USA_LON USA_RECORD USA_STATUS USA_WIND USA_PRES USA_SSHS USA_R34_NE USA_R34_SE USA_R34_SW USA_R34_NW USA_R50_NE USA_R50_SE USA_R50_SW USA_R50_NW USA_R64_NE USA_R64_SE USA_R64_SW USA_R64_NW USA_POCI USA_ROCI USA_RMW USA_EYE TOKYO_LAT TOKYO_LON TOKYO_GRADE TOKYO_WIND TOKYO_PRES TOKYO_R50_DIR TOKYO_R50_LONG TOKYO_R50_SHORT TOKYO_R30_DIR TOKYO_R30_LONG TOKYO_R30_SHORT TOKYO_LAND CMA_LAT CMA_LON CMA_CAT CMA_WIND CMA_PRES HKO_LAT HKO_LON HKO_CAT HKO_WIND HKO_PRES NEWDELHI_LAT NEWDELHI_LON NEWDELHI_GRADE NEWDELHI_WIND NEWDELHI_PRES NEWDELHI_CI NEWDELHI_DP NEWDELHI_POCI REUNION_LAT REUNION_LON REUNION_TYPE REUNION_WIND REUNION_PRES REUNION_TNUM REUNION_CI REUNION_RMW REUNION_R34_NE REUNION_R34_SE REUNION_R34_SW REUNION_R34_NW REUNION_R50_NE REUNION_R50_SE REUNION_R50_SW REUNION_R50_NW REUNION_R64_NE REUNION_R64_SE REUNION_R64_SW REUNION_R64_NW BOM_LAT BOM_LON BOM_TYPE BOM_WIND BOM_PRES BOM_TNUM BOM_CI BOM_RMW BOM_R34_NE BOM_R34_SE BOM_R34_SW BOM_R34_NW BOM_R50_NE BOM_R50_SE BOM_R50_SW BOM_R50_NW BOM_R64_NE BOM_R64_SE BOM_R64_SW BOM_R64_NW BOM_ROCI BOM_POCI BOM_EYE BOM_POS_METHOD BOM_PRES_METHOD NADI_LAT NADI_LON NADI_CAT NADI_WIND NADI_PRES WELLINGTON_LAT WELLINGTON_LON WELLINGTON_WIND WELLINGTON_PRES DS824_LAT DS824_LON DS824_STAGE DS824_WIND DS824_PRES TD9636_LAT TD9636_LON TD9636_STAGE TD9636_WIND TD9636_PRES TD9635_LAT TD9635_LON TD9635_WIND TD9635_PRES TD9635_ROCI NEUMANN_LAT NEUMANN_LON NEUMANN_CLASS NEUMANN_WIND NEUMANN_PRES MLC_LAT MLC_LON MLC_CLASS MLC_WIND MLC_PRES USA_GUST BOM_GUST BOM_GUST_PER REUNION_GUST REUNION_GUST_PER USA_SEAHGT USA_SEARAD_NE USA_SEARAD_SE USA_SEARAD_SW USA_SEARAD_NW STORM_SPEED STORM_DIR
1893244N21088 1893 37 NI BB NOT_NAMED 1893-09-01 00:00:00 TS 20.7000 87.7000 main 72 72 _________O____ -1 20.7000 87.7000 TC 34 0 0
1893244N21088 1893 37 NI BB NOT_NAMED 1893-09-01 03:00:00 TS 20.7000 87.7000 main 72 72 _________PO___ -1 20.7000 87.7000 TC 36 20.7000 87.7000 2 0 0
1893244N21088 1893 37 NI BB NOT_NAMED 1893-09-01 06:00:00 TS 20.7006 87.6981 main 72 72 _________OP___ -1 20.7000 87.7000 TC 39 20.7016 87.6953 2 0 0
1893244N21088 1893 37 NI BB NOT_NAMED 1893-09-01 09:00:00 TS 20.7011 87.6968 main 72 72 _________PP___ -1 20.7000 87.7000 TC 42 20.7025 87.6925 2 0 0
1893244N21088 1893 37 NI BB NOT_NAMED 1893-09-01 12:00:00 TS 20.7011 87.6967 main 72 72 _________OP___ -1 20.7000 87.7000 TC 45 20.7022 87.6934 2 0 0
1893244N21088 1893 37 NI BB NOT_NAMED 1893-09-01 15:00:00 TS 20.7000 87.7000 main 72 72 _________PO___ -1 20.7000 87.7000 TC 45 20.7000 87.7000 3 0 0
1893244N21088 1893 37 NI BB NOT_NAMED 1893-09-01 18:00:00 TS 20.6980 87.7061 main 72 72 _________OP___ -1 20.7000 87.7000 TC 45 20.6959 87.7122 3 0 0
1893244N21088 1893 37 NI BB NOT_NAMED 1893-09-01 21:00:00 TS 20.6962 87.7150 main 72 72 _________PP___ -1 20.7000 87.7075 TC 45 20.6925 87.7225 3 0 0
1893244N21088 1893 37 NI BB NOT_NAMED 1893-09-02 00:00:00 TS 20.6964 87.7108 main 72 72 _________OP___ -1 20.7000 87.7000 TC 45 20.6928 87.7215 3 0 270
1893244N21088 1893 37 NI BB NOT_NAMED 1893-09-02 03:00:00 TS 20.6962 87.6825 main 72 62 _________PO___ -1 20.6925 87.6650 TC 45 20.7000 87.7000 3 1 276
1893244N21088 1893 37 NI BB NOT_NAMED 1893-09-02 06:00:00 TS 20.7049 87.6233 main 62 52 _________OP___ -1 20.7000 87.6000 TC 45 20.7097 87.6465 3 1 286
1893244N21088 1893 37 NI BB NOT_NAMED 1893-09-02 09:00:00 TS 20.7350 87.5400 main 52 41 _________PP___ -1 20.7425 87.5075 TC 45 20.7275 87.5725 3 2 294
1893244N21088 1893 37 NI BB NOT_NAMED 1893-09-02 12:00:00 TS 20.7783 87.4436 main 41 31 _________OP___ -1 20.8000 87.4000 TC 45 20.7566 87.4872 3 2 295
1893244N21088 1893 37 NI BB NOT_NAMED 1893-09-02 15:00:00 TS 20.8213 87.3462 main 31 31 _________PO___ -1 20.8425 87.2925 TC 45 20.8000 87.4000 3 1 306
1893244N21088 1893 37 NI BB NOT_NAMED 1893-09-02 18:00:00 TS 20.8404 87.3480 main 31 31 _________OP___ -1 20.9000 87.2000 TC 45 20.7807 87.4961 3 1 70
1893244N21088 1893 37 NI BB NOT_NAMED 1893-09-02 21:00:00 TS 20.8519 87.4321 main 43 33 _________PP___ -1 20.9163 87.2984 TC 45 20.7875 87.5659 3 2 339
1893244N21088 1893 37 NI BB NOT_NAMED 1893-09-03 00:00:00 TS 20.9878 87.2890 main 38 0 _________OP___ -1 21.1000 87.1000 TC 45 20.8756 87.4780 3 9 305
1893244N21088 1893 37 NI BB NOT_NAMED 1893-09-03 03:00:00 TS 21.3705 86.6370 main 0 0 _________PO___ -1 21.6410 86.1740 TC 41 21.1000 87.1000 3 19 300
1893244N21088 1893 37 NI BB NOT_NAMED 1893-09-03 06:00:00 TS 21.9186 85.5425 main 0 0 _________OP___ -1 22.3000 84.9000 TC 37 21.5373 86.1851 3 24 297
1893244N21088 1893 37 NI BB NOT_NAMED 1893-09-03 09:00:00 TS 22.4650 84.3115 main 0 0 _________PP___ -1 22.8308 83.6402 TC 33 22.0991 84.9828 3 25 296
1893244N21088 1893 37 NI BB NOT_NAMED 1893-09-03 12:00:00 TS 23.0050 83.0939 main 0 0 _________OP___ -1 23.3000 82.5000 TC 30 22.7100 83.6878 3 23 297
1893244N21088 1893 37 NI BB NOT_NAMED 1893-09-03 15:00:00 TS 23.4993 82.1043 main 0 0 _________PO___ -1 23.6986 81.7086 TC 30 23.3000 82.5000 1 18 301
1893244N21088 1893 37 NI BB NOT_NAMED 1893-09-03 18:00:00 TS 23.9374 81.3832 main 0 0 _________OP___ -1 24.1000 81.1000 TC 30 23.7747 81.6664 1 16 306
1893244N21088 1893 37 NI BB NOT_NAMED 1893-09-03 21:00:00 TS 24.4125 80.7206 main 0 0 _________PP___ -1 24.5998 80.4626 TC 30 24.2253 80.9787 1 15 310
1893244N21088 1893 37 NI BB NOT_NAMED 1893-09-04 00:00:00 TS 24.8817 80.1508 main 0 0 _________OP___ -1 25.1000 79.9000 TC 30 24.6634 80.4017 1 13 313
1893244N21088 1893 37 NI BB NOT_NAMED 1893-09-04 03:00:00 TS 25.2998 79.6596 main 0 0 _________PO___ -1 25.4997 79.4192 TC 30 25.1000 79.9000 1 12 314
1893244N21088 1893 37 NI BB NOT_NAMED 1893-09-04 06:00:00 TS 25.7205 79.1863 main 0 0 _________OP___ -1 25.9000 79.0000 TC 30 25.5409 79.3726 1 12 317
1893244N21088 1893 37 NI BB NOT_NAMED 1893-09-04 09:00:00 TS 26.1845 78.7419 main 0 0 _________PP___ -1 26.3850 78.5700 TC 30 25.9840 78.9138 1 12 322
1893244N21088 1893 37 NI BB NOT_NAMED 1893-09-04 12:00:00 TS 26.6675 78.3615 main 0 0 _________OP___ -1 26.9000 78.2000 TC 30 26.4351 78.5231 1 11 328
1893244N21088 1893 37 NI BB NOT_NAMED 1893-09-04 15:00:00 TS 27.1499 78.0561 main 0 0 _________PO___ -1 27.3999 77.9122 TC 30 26.9000 78.2000 1 11 334
1893244N21088 1893 37 NI AS NOT_NAMED 1893-09-04 18:00:00 TS 27.6044 77.8380 main 0 0 _________OP___ -1 27.9000 77.7000 TC 30 27.3827 77.9415 1 10 339
1893244N21088 1893 37 NI AS NOT_NAMED 1893-09-04 21:00:00 TS 28.0882 77.6552 main 0 0 _________PP___ -1 28.4001 77.5378 TC 30 27.8803 77.7334 1 10 343
1893244N21088 1893 37 NI AS NOT_NAMED 1893-09-05 00:00:00 TS 28.5585 77.5058 main 0 0 _________OP___ -1 28.9000 77.4000 TC 30 28.3877 77.5587 1 8 345
1893244N21088 1893 37 NI AS NOT_NAMED 1893-09-05 03:00:00 NR 28.9000 77.4000 main 0 __________O___ -1 TC 28.9000 77.4000 1 7 345

About IBTrACS Database

This database is a web-friendly format of International Best Track Archive for Climate Stewardship (IBTrACS), a global best track data archive curated by NOAA dating back to 1842.

Updated: 2021-11-26